Flight Track Log - Related Links

Times and Time Zones

All times are in EDT time to prevent confusion due to time zone crossing. See the BAW228 flight status page for this flight to view local times or setup timezone preferences in your user account.

Time Position Orientation Groundspeed Altitude Reporting Facility
EDT Latitude Longitude Course Direction KTS MPH feet Rate Location/Type
Sat 09:39:07 PM 39.0510 -76.5600 145° Southeast 261 300 4,500  Level FlightAware ADS-B
Sat 09:39:47 PM 39.0210 -76.5070 126° Southeast 269 310 6,200 2,400 Climbing FlightAware ADS-B
Sat 09:40:12 PM 39.0200 -76.4630 92° East 284 327 7,100 2,133 Climbing FlightAware ADS-B
Sat 09:40:32 PM 39.0200 -76.4280 90° East 289 333 7,800 2,308 Climbing FlightAware ADS-B
Sat 09:40:38 PM 39.0204 -76.4147 88° East 289 333 8,100 2,571 Climbing FlightAware ADS-B
Sat 09:40:53 PM 39.0209 -76.3889 89° East 289 333 8,700 2,455 Climbing FlightAware ADS-B
Sat 09:41:00 PM 39.0223 -76.3770 81° East 291 335 9,000 2,182 Climbing FlightAware ADS-B
Sat 09:41:04 PM 39.0236 -76.3702 76° East 293 337 9,100 1,200 Climbing FlightAware ADS-B
Sat 09:41:10 PM 39.0266 -76.3619 65° Northeast 295 339 9,200 2,000 Climbing FlightAware ADS-B
Sat 09:41:25 PM 39.0355 -76.3362 66° East 300 345 9,800 1,867 Climbing FlightAware ADS-B
Sat 09:41:55 PM 39.0519 -76.2859 67° East 315 362 10,600 1,279 Climbing FlightAware ADS-B
Sat 09:42:26 PM 39.0710 -76.2302 66° East 341 392 11,100 1,258 Climbing FlightAware ADS-B
Sat 09:42:57 PM 39.0915 -76.1714 66° East 359 413 11,900 1,180 Climbing FlightAware ADS-B
Sat 09:43:27 PM 39.1133 -76.1107 65° Northeast 386 444 12,300 1,452 Climbing FlightAware ADS-B
Sat 09:43:59 PM 39.1366 -76.0432 66° East 392 451 13,400 2,000 Climbing FlightAware ADS-B
Sat 09:44:30 PM 39.1597 -75.9763 66° East 399 459 14,400 1,966 Climbing FlightAware ADS-B
Sat 09:44:57 PM 39.1793 -75.9193 66° East 403 464 15,300 1,946 Climbing FlightAware ADS-B
Sat 09:45:07 PM 39.1884 -75.8957 64° Northeast 404 465 15,600 2,000 Climbing FlightAware ADS-B
Sat 09:45:18 PM 39.2006 -75.8737 54° Northeast 404 465 16,000 1,909 Climbing FlightAware ADS-B
Sat 09:45:29 PM 39.2134 -75.8531 51° Northeast 407 468 16,300 1,902 Climbing FlightAware ADS-B
Sat 09:45:59 PM 39.2534 -75.8007 45° Northeast 412 474 17,300 1,900 Climbing FlightAware ADS-B
Sat 09:46:29 PM 39.2944 -75.7480 45° Northeast 419 482 18,200 1,770 Climbing FlightAware ADS-B
Sat 09:47:00 PM 39.3366 -75.6928 45° Northeast 425 489 19,100 1,869 Climbing FlightAware ADS-B
Sat 09:47:30 PM 39.3790 -75.6384 45° Northeast 428 493 20,100 2,000 Climbing FlightAware ADS-B
Sat 09:48:00 PM 39.4212 -75.5838 45° Northeast 431 496 21,100 1,869 Climbing FlightAware ADS-B
Sat 09:48:31 PM 39.4640 -75.5268 46° Northeast 436 502 22,000 1,672 Climbing FlightAware ADS-B
Sat 09:49:01 PM 39.5073 -75.4708 45° Northeast 442 509 22,800 1,700 Climbing FlightAware ADS-B
Sat 09:49:31 PM 39.5510 -75.4142 45° Northeast 445 512 23,700 1,688 Climbing FlightAware ADS-B
Sat 09:50:05 PM 39.6013 -75.3494 45° Northeast 450 518 24,600 1,569 Climbing FlightAware ADS-B
Sat 09:50:36 PM 39.6462 -75.2912 45° Northeast 458 527 25,400 1,548 Climbing FlightAware ADS-B
Sat 09:51:07 PM 39.6915 -75.2264 48° Northeast 463 533 26,200 2,438 Climbing FlightAware ADS-B
Sat 09:51:40 PM 39.7386 -75.1591 48° Northeast 448 516 28,000 3,375 Climbing FlightAware ADS-B
Sat 09:52:11 PM 39.7797 -75.0999 48° Northeast 423 487 29,800 2,031 Climbing FlightAware ADS-B
Sat 09:52:45 PM 39.8256 -75.0352 47° Northeast 438 504 30,200 831 Climbing FlightAware ADS-B
Sat 09:53:16 PM 39.8687 -74.9742 47° Northeast 446 513 30,700 968 Climbing FlightAware ADS-B
Sat 09:53:47 PM 39.9125 -74.9123 47° Northeast 453 521 31,200 1,179 Climbing FlightAware ADS-B
Sat 09:54:12 PM 39.9474 -74.8616 48° Northeast 457 526 31,800 1,412 Climbing FlightAware ADS-B
Sat 09:54:21 PM 39.9589 -74.8414 53° Northeast 464 534 32,000 1,714 Climbing FlightAware ADS-B
Sat 09:54:33 PM 39.9716 -74.8120 61° Northeast 471 542 32,400 1,909 Climbing FlightAware ADS-B
Sat 09:54:43 PM 39.9802 -74.7858 67° East 473 544 32,700 1,421 Climbing FlightAware ADS-B
Sat 09:55:11 PM 40.0018 -74.7111 69° East 474 545 33,300 1,241 Climbing FlightAware ADS-B
Sat 09:55:41 PM 40.0265 -74.6318 68° East 473 544 33,900 1,200 Climbing FlightAware ADS-B
Sat 09:56:11 PM 40.0504 -74.5524 69° East 471 542 34,500 1,065 Climbing FlightAware ADS-B
Sat 09:56:43 PM 40.0749 -74.4675 69° East 473 544 35,000 469 Climbing FlightAware ADS-B
Sat 09:57:15 PM 40.1009 -74.3821 68° East 474 545 35,000  Level FlightAware ADS-B
Sat 09:57:46 PM 40.1246 -74.2993 69° East 473 544 35,000  Level FlightAware ADS-B
Sat 09:58:16 PM 40.1486 -74.2193 69° East 471 542 35,000  Level FlightAware ADS-B
Sat 09:58:47 PM 40.1723 -74.1373 69° East 469 540 35,000  Level FlightAware ADS-B
Sat 09:59:17 PM 40.1953 -74.0577 69° East 468 539 35,000  Level FlightAware ADS-B
Sat 09:59:48 PM 40.2190 -73.9787 69° East 467 537 35,000  Level FlightAware ADS-B
Sat 10:00:18 PM 40.2422 -73.8969 70° East 468 539 35,000  Level FlightAware ADS-B
Sat 10:00:49 PM 40.2661 -73.8148 69° East 469 540 35,000  Level FlightAware ADS-B
Sat 10:01:16 PM 40.2870 -73.7429 69° East 469 540 35,000  Level FlightAware ADS-B
Sat 10:01:47 PM 40.3144 -73.6635 66° East 462 532 35,000  Level FlightAware ADS-B
Sat 10:02:03 PM 40.3303 -73.6243 62° Northeast 459 528 35,000  Level FlightAware ADS-B
Sat 10:02:38 PM 40.3686 -73.5447 58° Northeast 453 521 35,000  Level FlightAware ADS-B
Sat 10:03:09 PM 40.4039 -73.4699 58° Northeast 454 522 35,000  Level FlightAware ADS-B
Sat 10:03:41 PM 40.4401 -73.3954 57° Northeast 454 522 35,000  Level FlightAware ADS-B
Sat 10:04:13 PM 40.4753 -73.3210 58° Northeast 454 522 35,000  Level FlightAware ADS-B
Sat 10:04:43 PM 40.5097 -73.2512 57° Northeast 454 522 35,000  Level FlightAware ADS-B
Sat 10:05:14 PM 40.5435 -73.1813 58° Northeast 453 521 35,000  Level FlightAware ADS-B
Sat 10:05:44 PM 40.5771 -73.1093 58° Northeast 452 520 35,000  Level FlightAware ADS-B
Sat 10:06:14 PM 40.6106 -73.0396 58° Northeast 451 519 35,000  Level FlightAware ADS-B
Sat 10:06:44 PM 40.6441 -72.9697 58° Northeast 450 518 35,000  Level FlightAware ADS-B
Sat 10:07:14 PM 40.6773 -72.9004 58° Northeast 448 516 35,000  Level FlightAware ADS-B
Sat 10:07:45 PM 40.7107 -72.8311 58° Northeast 447 514 35,000  Level FlightAware ADS-B
Sat 10:08:09 PM 40.7380 -72.7734 58° Northeast 446 513 35,000  Level FlightAware ADS-B
Sat 10:08:41 PM 40.7724 -72.6999 58° Northeast 445 512 35,000  Level FlightAware ADS-B
Sat 10:09:14 PM 40.8080 -72.6265 57° Northeast 444 511 35,000  Level FlightAware ADS-B
Sat 10:09:44 PM 40.8413 -72.5552 58° Northeast 444 511 35,000  Level FlightAware ADS-B
Sat 10:10:14 PM 40.8744 -72.4865 57° Northeast 444 511 35,000  Level FlightAware ADS-B
Sat 10:10:45 PM 40.9070 -72.4151 59° Northeast 443 510 35,000  Level FlightAware ADS-B
Sat 10:11:15 PM 40.9400 -72.3464 58° Northeast 442 509 35,000  Level FlightAware ADS-B
Sat 10:11:45 PM 40.9723 -72.2772 58° Northeast 443 510 35,000  Level FlightAware ADS-B
Sat 10:12:15 PM 41.0048 -72.2080 58° Northeast 443 510 35,000  Level FlightAware ADS-B
Sat 10:12:46 PM 41.0376 -72.1370 58° Northeast 441 507 35,000  Level FlightAware ADS-B
Sat 10:13:16 PM 41.0703 -72.0679 58° Northeast 440 506 35,000  Level FlightAware ADS-B
Sat 10:13:47 PM 41.1028 -71.9968 59° Northeast 439 505 35,000  Level FlightAware ADS-B
Sat 10:14:23 PM 41.1414 -71.9144 58° Northeast 439 505 35,000  Level FlightAware ADS-B
Sat 10:14:54 PM 41.1735 -71.8455 58° Northeast 439 505 35,000  Level FlightAware ADS-B
Sat 10:15:26 PM 41.2077 -71.7695 59° Northeast 440 506 35,000  Level FlightAware ADS-B
Sat 10:16:03 PM 41.2475 -71.6841 58° Northeast 441 507 35,000  Level FlightAware ADS-B
Sat 10:16:34 PM 41.2800 -71.6145 58° Northeast 442 509 35,000  Level FlightAware ADS-B
Sat 10:17:06 PM 41.3141 -71.5378 59° Northeast 443 510 35,000  Level FlightAware ADS-B
Sat 10:17:37 PM 41.3478 -71.4654 58° Northeast 446 513 35,000  Level FlightAware ADS-B
Sat 10:18:10 PM 41.3835 -71.3877 58° Northeast 449 517 35,000  Level FlightAware ADS-B
Sat 10:18:42 PM 41.4175 -71.3120 59° Northeast 449 517 35,000  Level FlightAware ADS-B
Sat 10:19:31 PM 41.4705 -71.1951 59° Northeast 453 521 35,000  Level FlightAware ADS-B
Sat 10:20:12 PM 41.5130 -71.1020 59° Northeast 450 518 35,000  Level FlightAware ADS-B
Sat 10:20:52 PM 41.5570 -71.0030 59° Northeast 452 520 35,000  Level FlightAware ADS-B
Sat 10:21:32 PM 41.5990 -70.9110 59° Northeast 452 520 35,000  Level FlightAware ADS-B
Sat 10:22:17 PM 41.6480 -70.7990 60° Northeast 452 520 35,000  Level FlightAware ADS-B
Sat 10:22:57 PM 41.6890 -70.7070 59° Northeast 451 519 35,000  Level FlightAware ADS-B
Sat 10:23:42 PM 41.7370 -70.5980 59° Northeast 451 519 35,000  Level FlightAware ADS-B
Sat 10:24:12 PM 41.7680 -70.5300 59° Northeast 451 519 35,000  Level FlightAware ADS-B
Sat 10:25:07 PM 41.8310 -70.3870 59° Northeast 451 519 35,000  Level FlightAware ADS-B
Sat 10:25:47 PM 41.8690 -70.2990 60° Northeast 455 524 35,000  Level FlightAware ADS-B
Sat 10:26:27 PM 41.9140 -70.1950 60° Northeast 454 522 35,000  Level FlightAware ADS-B
Sat 10:27:12 PM 41.9620 -70.0870 59° Northeast 454 522 35,000  Level FlightAware ADS-B
Sat 10:27:52 PM 42.0020 -69.9950 60° Northeast 455 524 35,000  Level FlightAware ADS-B
Sat 10:28:47 PM 42.0630 -69.8500 60° Northeast 456 525 35,000  Level FlightAware ADS-B
Sat 10:29:32 PM 42.1100 -69.7410 60° Northeast 458 527 35,000  Level FlightAware ADS-B
Sat 10:30:12 PM 42.1520 -69.6450 59° Northeast 459 528 35,000  Level FlightAware ADS-B
Sat 10:30:52 PM 42.1950 -69.5430 60° Northeast 460 529 35,000  Level FlightAware ADS-B
Sat 10:31:37 PM 42.2440 -69.4290 60° Northeast 460 529 35,000  Level FlightAware ADS-B
Sat 10:32:17 PM 42.2850 -69.3290 61° Northeast 460 529 35,000  Level FlightAware ADS-B
Sat 10:32:57 PM 42.3280 -69.2290 60° Northeast 462 532 35,000  Level FlightAware ADS-B
Sat 10:33:42 PM 42.3750 -69.1160 61° Northeast 464 534 35,000  Level FlightAware ADS-B
Sat 10:34:22 PM 42.4170 -69.0150 61° Northeast 464 534 35,000  Level FlightAware ADS-B
Sat 10:35:02 PM 42.4580 -68.9160 61° Northeast 466 536 35,000  Level FlightAware ADS-B
Sat 10:36:02 PM 42.5220 -68.7630 60° Northeast 467 537 35,000  Level FlightAware ADS-B
Sat 10:36:42 PM 42.5650 -68.6580 61° Northeast 469 540 35,000  Level FlightAware ADS-B
Sat 10:37:27 PM 42.6050 -68.5670 59° Northeast 469 540 35,000  Level FlightAware ADS-B
Sat 10:38:07 PM 42.6540 -68.4420 62° Northeast 471 542 35,000  Level FlightAware ADS-B
Sat 10:38:42 PM 42.6880 -68.3630 60° Northeast 471 542 35,000  Level FlightAware ADS-B
Sat 10:39:32 PM 42.7340 -68.2540 60° Northeast 471 542 35,000  Level FlightAware ADS-B
Sat 10:40:12 PM 42.7710 -68.1660 60° Northeast 471 542 35,000  Level FlightAware ADS-B
Sat 10:40:52 PM 42.8080 -68.0790 60° Northeast 471 542 35,000  Level FlightAware ADS-B
Sat 10:41:32 PM 42.8450 -67.9920 60° Northeast 471 542 35,000  Level FlightAware ADS-B
Sat 10:42:12 PM 42.8820 -67.9040 60° Northeast 471 542 35,000  Level FlightAware ADS-B
Sat 10:43:02 PM 42.9670 -67.6720 63° Northeast 477 549 35,000  Level FlightAware ADS-B
Sat 10:43:42 PM 43.0100 -67.5630 62° Northeast 477 549 35,000  Level FlightAware ADS-B
Sat 10:44:22 PM 43.0510 -67.4600 61° Northeast 476 548 35,000  Level FlightAware ADS-B
Sat 10:45:02 PM 43.0930 -67.3540 61° Northeast 477 549 35,000  Level FlightAware ADS-B
Sat 10:45:47 PM 43.1380 -67.2370 62° Northeast 477 549 35,000  Level FlightAware ADS-B
Sat 10:46:32 PM 43.1810 -67.1310 61° Northeast 477 549 35,000  Level FlightAware ADS-B
Sat 10:47:12 PM 43.2300 -67.0060 62° Northeast 476 548 35,000  Level FlightAware ADS-B
Sat 10:47:57 PM 43.2760 -66.8860 62° Northeast 471 542 35,000  Level FlightAware ADS-B
Sat 10:48:47 PM 43.3220 -66.7660 62° Northeast 470 541 35,000  Level FlightAware ADS-B
Sat 10:49:27 PM 43.3690 -66.6450 62° Northeast 466 536 35,000  Level FlightAware ADS-B
Sat 10:50:12 PM 43.4140 -66.5290 62° Northeast 465 535 35,000  Level FlightAware ADS-B
Sat 10:51:12 PM 43.4740 -66.3710 62° Northeast 465 535 35,000  Level FlightAware ADS-B
Sat 10:51:52 PM 43.5140 -66.2640 63° Northeast 465 535 35,000  Level FlightAware ADS-B
Sat 10:52:32 PM 43.5530 -66.1610 62° Northeast 464 534 35,000  Level FlightAware ADS-B
Sat 10:53:07 PM 43.5880 -66.0670 63° Northeast 466 536 35,000  Level FlightAware ADS-B
Sat 10:53:57 PM 43.6380 -65.9350 62° Northeast 466 536 35,000  Level FlightAware ADS-B
Sat 10:54:52 PM 43.6920 -65.7910 63° Northeast 467 537 35,000  Level FlightAware ADS-B
Sat 10:55:52 PM 43.7500 -65.6320 63° Northeast 470 541 35,000  Level FlightAware ADS-B
Sat 10:56:32 PM 43.7910 -65.5220 63° Northeast 471 542 35,000  Level FlightAware ADS-B
Sat 10:57:12 PM 43.8300 -65.4150 63° Northeast 472 543 35,000  Level FlightAware ADS-B
Sat 10:57:52 PM 43.8700 -65.3070 63° Northeast 474 545 35,000  Level FlightAware ADS-B
Sat 10:58:37 PM 43.9140 -65.1850 63° Northeast 472 543 35,000  Level FlightAware ADS-B
Sat 10:59:32 PM 43.9690 -65.0340 63° Northeast 476 548 35,000  Level FlightAware ADS-B
Sat 11:00:17 PM 44.0140 -64.9100 63° Northeast 478 550 35,000  Level FlightAware ADS-B
Sat 11:00:57 PM 44.0530 -64.8020 63° Northeast 480 552 35,000  Level FlightAware ADS-B
Sat 11:01:32 PM 44.0890 -64.7010 64° Northeast 483 556 35,000  Level FlightAware ADS-B
Sat 11:02:22 PM 44.1370 -64.5670 63° Northeast 483 556 35,000  Level FlightAware ADS-B
Sat 11:03:07 PM 44.1830 -64.4380 64° Northeast 486 559 35,000  Level FlightAware ADS-B
Sat 11:03:47 PM 44.2230 -64.3230 64° Northeast 481 554 35,000  Level FlightAware ADS-B
Sat 11:04:32 PM 44.2670 -64.2010 63° Northeast 481 554 35,000  Level FlightAware ADS-B
Sat 11:05:07 PM 44.2980 -64.1120 64° Northeast 479 551 35,000  Level FlightAware ADS-B
Sat 11:05:52 PM 44.3440 -63.9810 64° Northeast 476 548 35,000  Level FlightAware ADS-B
Sat 11:06:27 PM 44.3790 -63.8820 64° Northeast 474 545 35,000  Level FlightAware ADS-B
Sat 11:07:12 PM 44.4210 -63.7610 64° Northeast 473 544 35,000  Level FlightAware ADS-B
Sat 11:07:57 PM 44.4640 -63.6340 65° Northeast 472 543 35,000  Level FlightAware ADS-B
Sat 11:08:42 PM 44.5060 -63.5110 64° Northeast 471 542 35,000  Level FlightAware ADS-B
Sat 11:09:22 PM 44.5410 -63.4090 64° Northeast 470 541 35,000  Level FlightAware ADS-B
Sat 11:10:07 PM 44.5870 -63.2780 64° Northeast 470 541 35,000  Level FlightAware ADS-B
Sat 11:10:47 PM 44.6220 -63.1730 65° Northeast 471 542 35,000  Level FlightAware ADS-B
Sat 11:11:22 PM 44.6560 -63.0740 64° Northeast 471 542 35,000  Level FlightAware ADS-B
Sat 11:12:12 PM 44.7030 -62.9330 65° Northeast 473 544 35,000  Level FlightAware ADS-B
Sat 11:13:07 PM 44.7500 -62.7930 65° Northeast 472 543 35,000  Level FlightAware ADS-B
Sat 11:13:47 PM 44.7910 -62.6720 64° Northeast 473 544 35,000  Level FlightAware ADS-B
Sat 11:14:32 PM 44.8270 -62.5600 66° East 473 544 35,000  Level FlightAware ADS-B
Sat 11:15:27 PM 44.8790 -62.4060 64° Northeast 476 548 35,000  Level FlightAware ADS-B
Sat 11:16:07 PM 44.9110 -62.3100 65° Northeast 476 548 35,000  Level FlightAware ADS-B
Sat 11:16:47 PM 44.9430 -62.2150 65° Northeast 476 548 35,000  Level FlightAware ADS-B
Sat 11:17:27 PM 44.9740 -62.1190 65° Northeast 476 548 35,000  Level FlightAware ADS-B
Sat 11:18:17 PM 45.0140 -61.9990 65° Northeast 476 548 35,000  Level FlightAware ADS-B
Sat 11:18:57 PM 45.0450 -61.9030 65° Northeast 476 548 35,000  Level FlightAware ADS-B
Sat 11:19:37 PM 45.0770 -61.8070 65° Northeast 476 548 35,000  Level FlightAware ADS-B
Sat 11:20:17 PM 45.1090 -61.7100 65° Northeast 476 548 35,000  Level FlightAware ADS-B
Sat 11:20:57 PM 45.1400 -61.6140 65° Northeast 476 548 35,000  Level FlightAware ADS-B
Sat 11:21:47 PM 45.1800 -61.4940 65° Northeast 476 548 35,000  Level FlightAware ADS-B
Sat 11:22:27 PM 45.2110 -61.3980 65° Northeast 476 548 35,000  Level FlightAware ADS-B
Sat 11:23:12 PM 45.3030 -61.0800 68° East 474 545 35,000  Level FlightAware ADS-B
Sat 11:23:52 PM 45.3390 -60.9660 66° East 475 547 35,000  Level FlightAware ADS-B
Sat 11:24:32 PM 45.3750 -60.8490 66° East 474 545 35,000  Level FlightAware ADS-B
Sat 11:25:17 PM 45.4130 -60.7270 66° East 472 543 35,000  Level FlightAware ADS-B
Sat 11:25:57 PM 45.4480 -60.6130 66° East 472 543 35,000  Level FlightAware ADS-B
Sat 11:26:37 PM 45.4840 -60.4960 66° East 472 543 35,000  Level FlightAware ADS-B
Sat 11:27:22 PM 45.5240 -60.3650 66° East 473 544 35,000  Level FlightAware ADS-B
Sat 11:28:02 PM 45.5590 -60.2500 66° East 473 544 35,000  Level FlightAware ADS-B
Sat 11:28:47 PM 45.5970 -60.1240 67° East 474 545 35,000  Level FlightAware ADS-B
Sat 11:29:27 PM 45.6320 -60.0090 66° East 474 545 35,000  Level FlightAware ADS-B
Sat 11:30:12 PM 45.6710 -59.8760 67° East 475 547 35,000  Level FlightAware ADS-B
Sat 11:30:52 PM 45.7050 -59.7630 67° East 475 547 35,000  Level FlightAware ADS-B
Sat 11:31:32 PM 45.7400 -59.6450 67° East 475 547 35,000  Level FlightAware ADS-B
Sat 11:32:17 PM 45.7770 -59.5200 67° East 475 547 35,000  Level FlightAware ADS-B
Sat 11:32:57 PM 45.8110 -59.4040 67° East 473 544 35,000  Level FlightAware ADS-B
Sat 11:33:37 PM 45.8450 -59.2860 67° East 473 544 35,000  Level FlightAware ADS-B
Sat 11:34:22 PM 45.8840 -59.1520 67° East 473 544 35,000  Level FlightAware ADS-B
Sat 11:35:02 PM 45.9170 -59.0370 68° East 472 543 35,000  Level FlightAware ADS-B
Sat 11:35:47 PM 45.9540 -58.9090 67° East 472 543 35,000  Level FlightAware ADS-B
Sat 11:36:27 PM 45.9870 -58.7930 68° East 471 542 35,000  Level FlightAware ADS-B
Sat 11:37:07 PM 46.0200 -58.6800 67° East 471 542 35,000  Level FlightAware ADS-B
Sat 11:37:52 PM 46.0590 -58.5440 68° East 470 541 35,000  Level FlightAware ADS-B
Sat 11:38:32 PM 46.0910 -58.4280 68° East 471 542 35,000  Level FlightAware ADS-B
Sat 11:39:12 PM 46.1230 -58.3150 68° East 472 543 35,000  Level FlightAware ADS-B
Sat 11:39:47 PM 46.1510 -58.2120 69° East 472 543 35,000  Level FlightAware ADS-B
Sat 11:40:32 PM 46.1840 -58.0960 68° East 472 543 35,000  Level FlightAware ADS-B
Sat 11:41:32 PM 46.2350 -57.9100 68° East 475 547 35,000  Level FlightAware ADS-B
Sat 11:42:12 PM 46.2630 -57.8100 68° East 475 547 35,000  Level FlightAware ADS-B
Sat 11:42:52 PM 46.2910 -57.7100 68° East 475 547 35,000  Level FlightAware ADS-B
Sat 11:43:42 PM 46.3260 -57.5840 68° East 475 547 35,000  Level FlightAware ADS-B
Sat 11:44:17 PM 46.3700 -57.4180 69° East 479 551 35,000  Level FlightAware ADS-B
Sat 11:45:02 PM 46.4030 -57.3010 68° East 479 551 35,000  Level FlightAware ADS-B
Sat 11:45:47 PM 46.4420 -57.1490 70° East 478 550 35,000  Level FlightAware ADS-B
Sat 11:46:22 PM 46.4680 -57.0570 68° East 478 550 35,000  Level FlightAware ADS-B
Sat 11:47:12 PM 46.5090 -56.8970 70° East 479 551 35,000  Level FlightAware ADS-B
Sat 11:47:52 PM 46.5390 -56.7770 70° East 478 550 35,000  Level FlightAware ADS-B
Sat 11:48:32 PM 46.5700 -56.6530 70° East 478 550 35,000  Level FlightAware ADS-B
Sat 11:49:17 PM 46.6020 -56.5260 70° East 477 549 35,000  Level FlightAware ADS-B
Sat 11:49:52 PM 46.6290 -56.4150 70° East 476 548 35,000  Level FlightAware ADS-B
Sat 11:50:42 PM 46.6660 -56.2650 70° East 475 547 35,000  Level FlightAware ADS-B
Sat 11:51:22 PM 46.6950 -56.1470 70° East 474 545 35,000  Level FlightAware ADS-B
Sat 11:52:02 PM 46.7260 -56.0210 70° East 472 543 35,000  Level FlightAware ADS-B
Sat 11:52:47 PM 46.7570 -55.8890 71° East 472 543 35,000  Level FlightAware ADS-B
Sat 11:53:27 PM 46.7860 -55.7720 70° East 472 543 35,000  Level FlightAware ADS-B
Sat 11:54:12 PM 46.8190 -55.6370 70° East 472 543 35,000  Level FlightAware ADS-B
Sat 11:54:52 PM 46.8490 -55.5110 71° East 471 542 35,000  Level FlightAware ADS-B
Sat 11:55:37 PM 46.8810 -55.3760 71° East 471 542 35,000  Level FlightAware ADS-B
Sat 11:56:17 PM 46.9090 -55.2550 71° East 471 542 35,000  Level FlightAware ADS-B
Sat 11:57:02 PM 46.9410 -55.1200 71° East 471 542 35,000  Level FlightAware ADS-B
Sat 11:57:42 PM 46.9690 -55.0000 71° East 471 542 35,000  Level FlightAware ADS-B
Sat 11:58:27 PM 47.0020 -54.8600 71° East 473 544 35,000  Level FlightAware ADS-B
Sat 11:59:07 PM 47.0290 -54.7390 72° East 473 544 35,000  Level FlightAware ADS-B
Sat 11:59:47 PM 47.0570 -54.6170 71° East 473 544 35,000  Level FlightAware ADS-B
Sun 12:00:32 AM 47.0890 -54.4780 71° East 474 545 35,000  Level FlightAware ADS-B
Sun 12:01:12 AM 47.1170 -54.3550 71° East 474 545 35,000  Level FlightAware ADS-B
Sun 12:01:57 AM 47.1470 -54.2210 72° East 475 547 35,000  Level FlightAware ADS-B
Sun 12:02:37 AM 47.1740 -54.0980 72° East 476 548 35,000  Level FlightAware ADS-B
Sun 12:03:17 AM 47.2010 -53.9790 71° East 477 549 35,000  Level FlightAware ADS-B
Sun 12:04:02 AM 47.2330 -53.8330 72° East 478 550 35,000  Level FlightAware ADS-B
Sun 12:04:42 AM 47.2600 -53.7130 72° East 479 551 35,000  Level FlightAware ADS-B
Sun 12:05:27 AM 47.2900 -53.5760 72° East 481 554 35,000  Level FlightAware ADS-B
Sun 12:06:07 AM 47.3170 -53.4480 73° East 483 556 35,000  Level FlightAware ADS-B
Sun 12:06:47 AM 47.3440 -53.3220 72° East 484 557 35,000  Level FlightAware ADS-B
Sun 12:07:32 AM 47.3750 -53.1800 72° East 486 559 35,000 141 Level FlightAware ADS-B
Sun 12:08:12 AM 47.4020 -53.0510 73° East 483 556 35,200 375 Climbing FlightAware ADS-B
Sun 12:08:52 AM 47.4280 -52.9280 73° East 482 555 35,500 424 Climbing FlightAware ADS-B
Sun 12:09:37 AM 47.4560 -52.7930 73° East 482 555 35,800 353 Climbing FlightAware ADS-B
Sun 12:10:17 AM 47.4830 -52.6640 73° East 483 556 36,000 150 Climbing FlightAware ADS-B
Sun 12:10:57 AM 47.5100 -52.5380 72° East 485 558 36,000  Level FlightAware ADS-B
Sun 12:11:42 AM 47.5400 -52.3920 73° East 488 562 36,000  Level FlightAware ADS-B
Sun 12:12:22 AM 47.5670 -52.2610 73° East 488 562 36,000  Level FlightAware ADS-B
Sun 12:13:07 AM 47.5950 -52.1230 73° East 489 563 36,000  Level FlightAware ADS-B
Sun 12:13:47 AM 47.6210 -51.9910 74° East 491 565 36,000  Level FlightAware ADS-B
Sun 12:14:27 AM 47.6470 -51.8620 73° East 494 568 36,000  Level FlightAware ADS-B
Sun 12:15:12 AM 47.6760 -51.7150 74° East 494 568 36,000  Level FlightAware ADS-B
Sun 12:15:52 AM 47.7020 -51.5850 73° East 495 570 36,000  Level FlightAware ADS-B
Sun 12:16:37 AM 47.7300 -51.4420 74° East 496 571 36,000  Level FlightAware ADS-B
Sun 12:17:17 AM 47.7550 -51.3100 74° East 499 574 36,000  Level FlightAware ADS-B
Sun 12:17:52 AM 47.7780 -51.1910 74° East 501 577 36,000  Level FlightAware ADS-B
Sun 12:18:37 AM 47.8050 -51.0530 74° East 501 577 36,000  Level FlightAware ADS-B
Sun 12:19:17 AM 47.8270 -50.9400 74° East 501 577 36,000  Level FlightAware ADS-B
Sun 12:20:07 AM 47.8540 -50.7990 74° East 501 577 36,000  Level FlightAware ADS-B
Sun 12:20:47 AM 47.8750 -50.6860 74° East 501 577 36,000  Level FlightAware ADS-B
Sun 12:21:27 AM 47.8970 -50.5730 74° East 501 577 36,000  Level FlightAware ADS-B
Sun 12:22:07 AM 47.9190 -50.4600 74° East 501 577 36,000  Level FlightAware ADS-B
Sun 12:22:47 AM 47.9410 -50.3470 74° East 501 577 36,000  Level FlightAware ADS-B
Sun 12:23:37 AM 47.9680 -50.2060 74° East 501 577 36,000  Level FlightAware ADS-B
Sun 12:24:00 AM 48.0000 -50.0000 61° Northeast 525 604 36,000  Level ETMS Enhanced Traffic Management System
Sun 12:24:17 AM 47.9890 -50.0920 75° East 501 577 36,000  Level FlightAware ADS-B
Sun 12:24:48 AM 48.0000 -49.7500 61° Northeast 510 587 36,000  Level Gander Center
Sun 12:24:57 AM 48.0110 -49.9790 74° East 501 577 36,000  Level FlightAware ADS-B
Sun 12:25:37 AM 48.0330 -49.8660 74° East 501 577 36,000  Level FlightAware ADS-B
Sun 12:25:48 AM 48.0667 -49.5833 59° Northeast 520 598 36,000  Level Gander Center
Sun 12:26:17 AM 48.0550 -49.7530 74° East 501 577 36,000  Level FlightAware ADS-B
Sun 12:26:39 AM 48.1333 -49.4000 61° Northeast 520 598 36,000  Level Gander Center
Sun 12:26:57 AM 48.0760 -49.6390 75° East 501 577 36,000  Level FlightAware ADS-B
Sun 12:27:39 AM 48.2000 -49.2167 61° Northeast 520 598 36,000  Level Gander Center
Sun 12:27:47 AM 48.1030 -49.4980 74° East 501 577 36,000  Level FlightAware ADS-B
Sun 12:28:39 AM 48.2833 -49.0167 58° Northeast 520 598 36,000  Level Gander Center
Sun 12:29:39 AM 48.3500 -48.8333 61° Northeast 520 598 36,000  Level Gander Center
Sun 12:30:39 AM 48.4000 -48.6333 69° East 520 598 36,000  Level Gander Center
Sun 12:31:39 AM 48.4667 -48.4333 63° Northeast 520 598 36,000  Level Gander Center
Sun 12:32:39 AM 48.5500 -48.2333 58° Northeast 520 598 36,000  Level Gander Center
Sun 12:33:39 AM 48.6000 -48.0500 68° East 520 598 36,000  Level Gander Center
Sun 12:34:39 AM 48.6667 -47.8667 61° Northeast 520 598 36,000  Level Gander Center
Sun 12:35:39 AM 48.7333 -47.6500 65° Northeast 530 610 36,000  Level Gander Center
Sun 12:36:39 AM 48.7833 -47.4500 69° East 520 598 36,000  Level Gander Center
Sun 12:37:39 AM 48.8667 -47.2500 58° Northeast 530 610 36,000  Level Gander Center
Sun 12:38:39 AM 48.9333 -47.0500 63° Northeast 530 610 36,000  Level Gander Center
Sun 12:39:39 AM 49.0000 -46.8833 59° Northeast 530 610 36,000  Level Gander Center
Sun 12:41:00 AM 49.0807 -46.6400 63° Northeast  Level FlightAware Approximate
Sun 12:48:00 AM 49.4910 -45.3655 63° Northeast  Level FlightAware Approximate
Sun 12:49:00 AM 49.5485 -45.1817 64° Northeast  Level FlightAware Approximate
Sun 12:50:00 AM 49.6057 -44.9975 64° Northeast  Level FlightAware Approximate
Sun 12:51:00 AM 49.6626 -44.8129 64° Northeast  Level FlightAware Approximate
Sun 12:52:00 AM 49.7191 -44.6278 65° Northeast  Level FlightAware Approximate
Sun 12:53:00 AM 49.7754 -44.4422 65° Northeast  Level FlightAware Approximate
Sun 12:54:00 AM 49.8314 -44.2563 65° Northeast  Level FlightAware Approximate
Sun 12:55:00 AM 49.8871 -44.0699 65° Northeast  Level FlightAware Approximate
Sun 12:56:00 AM 49.9425 -43.8831 65° Northeast  Level FlightAware Approximate
Sun 12:57:00 AM 49.9976 -43.6959 65° Northeast  Level FlightAware Approximate
Sun 12:58:00 AM 50.0524 -43.5082 65° Northeast  Level FlightAware Approximate
Sun 12:59:00 AM 50.1069 -43.3201 66° East  Level FlightAware Approximate
Sun 01:00:00 AM 50.1611 -43.1316 66° East  Level FlightAware Approximate
Sun 01:01:00 AM 50.2149 -42.9426 66° East  Level FlightAware Approximate
Sun 01:02:00 AM 50.2685 -42.7533 66° East  Level FlightAware Approximate
Sun 01:03:00 AM 50.3218 -42.5634 66° East  Level FlightAware Approximate
Sun 01:04:00 AM 50.3747 -42.3732 66° East  Level FlightAware Approximate
Sun 01:05:00 AM 50.4274 -42.1826 67° East  Level FlightAware Approximate
Sun 01:06:00 AM 50.4797 -41.9915 67° East  Level FlightAware Approximate
Sun 01:07:00 AM 50.5317 -41.8000 67° East  Level FlightAware Approximate
Sun 01:08:00 AM 50.5834 -41.6081 67° East  Level FlightAware Approximate
Sun 01:09:00 AM 50.6348 -41.4158 67° East  Level FlightAware Approximate
Sun 01:10:00 AM 50.6859 -41.2230 67° East  Level FlightAware Approximate
Sun 01:11:00 AM 50.7366 -41.0298 67° East  Level FlightAware Approximate
Sun 01:12:00 AM 50.7870 -40.8362 68° East  Level FlightAware Approximate
Sun 01:13:00 AM 50.8372 -40.6422 68° East  Level FlightAware Approximate
Sun 01:13:00 AM 51.0000 -40.0000 68° East 529 609 36,000  Level ETMS Enhanced Traffic Management System
Sun 01:14:00 AM 50.8870 -40.4478 68° East  Level FlightAware Approximate
Sun 01:15:00 AM 50.9364 -40.2530 68° East  Level FlightAware Approximate
Sun 01:16:00 AM 50.9856 -40.0577 68° East  Level FlightAware Approximate
Sun 01:17:00 AM 51.0340 -39.8623 69° East  Level FlightAware Approximate
Sun 01:18:00 AM 51.0821 -39.6660 69° East  Level FlightAware Approximate
Sun 01:19:00 AM 51.3738 -38.4707 69° East 529 609 36,000  Level FlightAware Transoceanic
Sun 01:20:00 AM 51.4255 -38.2502 69° East 529 609 36,000  Level FlightAware Transoceanic
Sun 01:21:00 AM 51.4769 -38.0292 70° East 529 609 36,000  Level FlightAware Transoceanic
Sun 01:22:00 AM 51.5278 -37.8077 70° East 529 609 36,000  Level FlightAware Transoceanic
Sun 01:23:00 AM 51.5783 -37.5857 70° East 529 609 36,000  Level FlightAware Transoceanic
Sun 01:24:00 AM 51.6284 -37.3633 70° East 529 609 36,000  Level FlightAware Transoceanic
Sun 01:25:00 AM 51.6781 -37.1403 70° East 529 609 36,000  Level FlightAware Transoceanic
Sun 01:26:00 AM 51.7273 -36.9168 71° East 529 609 36,000  Level FlightAware Transoceanic
Sun 01:27:00 AM 51.7761 -36.6929 71° East 529 609 36,000  Level FlightAware Transoceanic
Sun 01:28:00 AM 51.8246 -36.4685 71° East 529 609 36,000  Level FlightAware Transoceanic
Sun 01:29:00 AM 51.8725 -36.2436 71° East 529 609 36,000  Level FlightAware Transoceanic
Sun 01:30:00 AM 51.9201 -36.0182 71° East 529 609 36,000  Level FlightAware Transoceanic
Sun 01:31:00 AM 51.9672 -35.7924 71° East 529 609 36,000  Level FlightAware Transoceanic
Sun 01:32:00 AM 52.0138 -35.5661 72° East 529 609 36,000  Level FlightAware Transoceanic
Sun 01:33:00 AM 52.0601 -35.3392 72° East 529 609 36,000  Level FlightAware Transoceanic
Sun 01:34:00 AM 52.1059 -35.1120 72° East 529 609 36,000  Level FlightAware Transoceanic
Sun 01:35:00 AM 52.1512 -34.8843 72° East 529 609 36,000  Level FlightAware Transoceanic
Sun 01:36:00 AM 52.1962 -34.6561 72° East 529 609 36,000  Level FlightAware Transoceanic
Sun 01:37:00 AM 52.2407 -34.4274 72° East 529 609 36,000  Level FlightAware Transoceanic
Sun 01:38:00 AM 52.2847 -34.1983 73° East 529 609 36,000  Level FlightAware Transoceanic
Sun 01:39:00 AM 52.3283 -33.9688 73° East 529 609 36,000  Level FlightAware Transoceanic
Sun 01:40:00 AM 52.3714 -33.7388 73° East 529 609 36,000  Level FlightAware Transoceanic
Sun 01:41:00 AM 52.4142 -33.5083 73° East 529 609 36,000  Level FlightAware Transoceanic
Sun 01:42:00 AM 52.4564 -33.2774 73° East 529 609 36,000  Level FlightAware Transoceanic
Sun 01:43:00 AM 52.4982 -33.0461 74° East 529 609 36,000  Level FlightAware Transoceanic
Sun 01:44:00 AM 52.5396 -32.8143 74° East 529 609 36,000  Level FlightAware Transoceanic
Sun 01:45:00 AM 52.5805 -32.5821 74° East 529 609 36,000  Level FlightAware Transoceanic
Sun 01:46:00 AM 52.6209 -32.3494 74° East 529 609 36,000  Level FlightAware Transoceanic
Sun 01:47:00 AM 52.6609 -32.1163 74° East 529 609 36,000  Level FlightAware Transoceanic
Sun 01:48:00 AM 52.7004 -31.8828 74° East 529 609 36,000  Level FlightAware Transoceanic
Sun 01:49:00 AM 52.7395 -31.6489 75° East 529 609 36,000  Level FlightAware Transoceanic
Sun 01:50:00 AM 52.7781 -31.4146 75° East 529 609 36,000  Level FlightAware Transoceanic
Sun 01:51:00 AM 52.8162 -31.1798 75° East 529 609 36,000  Level FlightAware Transoceanic
Sun 01:52:00 AM 52.8539 -30.9447 75° East 529 609 36,000  Level FlightAware Transoceanic
Sun 01:53:00 AM 52.8912 -30.7091 75° East 529 609 36,000  Level FlightAware Transoceanic
Sun 01:54:00 AM 52.9279 -30.4731 76° East 529 609 36,000  Level FlightAware Transoceanic
Sun 01:55:00 AM 52.9642 -30.2368 76° East 529 609 36,000  Level FlightAware Transoceanic
Sun 01:56:00 AM 52.9965 -30.0234 76° East  Level FlightAware Approximate
Sun 01:57:00 AM 53.0284 -29.8098 76° East  Level FlightAware Approximate
Sun 01:58:00 AM 53.0071 -29.8287 86° East  Level FlightAware Approximate
Sun 01:59:00 AM 53.0158 -29.6090 86° East  Level FlightAware Approximate
Sun 01:59:00 AM 53.0000 -30.0000 86° East 527 606 36,000  Level ETMS Enhanced Traffic Management System
Sun 02:00:00 AM 53.0241 -29.3893 86° East  Level FlightAware Approximate
Sun 02:01:00 AM 53.0320 -29.1695 86° East  Level FlightAware Approximate
Sun 02:02:00 AM 53.0395 -28.9496 87° East  Level FlightAware Approximate
Sun 02:03:00 AM 53.0466 -28.7296 87° East  Level FlightAware Approximate
Sun 02:04:00 AM 53.0533 -28.5096 87° East  Level FlightAware Approximate
Sun 02:05:00 AM 53.0659 -28.0519 88° East 527 606 36,000  Level FlightAware Transoceanic
Sun 02:06:00 AM 53.0719 -27.8080 88° East 527 606 36,000  Level FlightAware Transoceanic
Sun 02:07:00 AM 53.0774 -27.5640 88° East 527 606 36,000  Level FlightAware Transoceanic
Sun 02:08:00 AM 53.0824 -27.3200 88° East 527 606 36,000  Level FlightAware Transoceanic
Sun 02:09:00 AM 53.0869 -27.0760 88° East 527 606 36,000  Level FlightAware Transoceanic
Sun 02:10:00 AM 53.0909 -26.8318 89° East 527 606 36,000  Level FlightAware Transoceanic
Sun 02:11:00 AM 53.0944 -26.5877 89° East 527 606 36,000  Level FlightAware Transoceanic
Sun 02:12:00 AM 53.0974 -26.3435 89° East 527 606 36,000  Level FlightAware Transoceanic
Sun 02:13:00 AM 53.0999 -26.0993 89° East 527 606 36,000  Level FlightAware Transoceanic
Sun 02:14:00 AM 53.1019 -25.8550 89° East 527 606 36,000  Level FlightAware Transoceanic
Sun 02:15:00 AM 53.1034 -25.6107 90° East 527 606 36,000  Level FlightAware Transoceanic
Sun 02:16:00 AM 53.1044 -25.3664 90° East 527 606 36,000  Level FlightAware Transoceanic
Sun 02:17:00 AM 53.1049 -25.1222 90° East 527 606 36,000  Level FlightAware Transoceanic
Sun 02:18:00 AM 53.1049 -24.8778 90° East 527 606 36,000  Level FlightAware Transoceanic
Sun 02:19:00 AM 53.1044 -24.6336 90° East 527 606 36,000  Level FlightAware Transoceanic
Sun 02:20:00 AM 53.1034 -24.3893 90° East 527 606 36,000  Level FlightAware Transoceanic
Sun 02:21:00 AM 53.1019 -24.1450 91° East 527 606 36,000  Level FlightAware Transoceanic
Sun 02:22:00 AM 53.0999 -23.9007 91° East 527 606 36,000  Level FlightAware Transoceanic
Sun 02:23:00 AM 53.0974 -23.6565 91° East 527 606 36,000  Level FlightAware Transoceanic
Sun 02:24:00 AM 53.0944 -23.4123 91° East 527 606 36,000  Level FlightAware Transoceanic
Sun 02:25:00 AM 53.0909 -23.1682 91° East 527 606 36,000  Level FlightAware Transoceanic
Sun 02:26:00 AM 53.0869 -22.9240 92° East 527 606 36,000  Level FlightAware Transoceanic
Sun 02:27:00 AM 53.0824 -22.6800 92° East 527 606 36,000  Level FlightAware Transoceanic
Sun 02:28:00 AM 53.0774 -22.4360 92° East 527 606 36,000  Level FlightAware Transoceanic
Sun 02:29:00 AM 53.0719 -22.1920 92° East 527 606 36,000  Level FlightAware Transoceanic
Sun 02:30:00 AM 53.0659 -21.9481 92° East 527 606 36,000  Level FlightAware Transoceanic
Sun 02:31:00 AM 53.0594 -21.7043 93° East 527 606 36,000  Level FlightAware Transoceanic
Sun 02:32:00 AM 53.0524 -21.4606 93° East 527 606 36,000  Level FlightAware Transoceanic
Sun 02:33:00 AM 53.0449 -21.2169 93° East 527 606 36,000  Level FlightAware Transoceanic
Sun 02:34:00 AM 53.0369 -20.9733 93° East 527 606 36,000  Level FlightAware Transoceanic
Sun 02:35:00 AM 53.0284 -20.7298 93° East 527 606 36,000  Level FlightAware Transoceanic
Sun 02:36:00 AM 53.0195 -20.4865 94° East 527 606 36,000  Level FlightAware Transoceanic
Sun 02:37:00 AM 53.0100 -20.2432 94° East 527 606 36,000  Level FlightAware Transoceanic
Sun 02:38:00 AM 53.0010 -20.0236 94° East  Level FlightAware Approximate
Sun 02:39:00 AM 52.9916 -19.8041 94° East  Level FlightAware Approximate
Sun 02:40:00 AM 52.9995 -19.8272 90° East  Level FlightAware Approximate
Sun 02:41:00 AM 52.9984 -19.6072 90° East  Level FlightAware Approximate
Sun 02:42:00 AM 52.9970 -19.3872 91° East  Level FlightAware Approximate
Sun 02:43:00 AM 52.9952 -19.1671 91° East  Level FlightAware Approximate
Sun 02:44:00 AM 52.9929 -18.9471 91° East  Level FlightAware Approximate
Sun 02:45:00 AM 52.9902 -18.7272 91° East  Level FlightAware Approximate
Sun 02:46:00 AM 52.9872 -18.5072 91° East  Level FlightAware Approximate
Sun 02:47:00 AM 52.9837 -18.2873 91° East  Level FlightAware Approximate
Sun 02:48:00 AM 52.9799 -18.0674 92° East  Level FlightAware Approximate
Sun 02:49:00 AM 52.9756 -17.8476 92° East  Level FlightAware Approximate
Sun 02:50:00 AM 52.9709 -17.6278 92° East  Level FlightAware Approximate
Sun 02:51:00 AM 52.9658 -17.4081 92° East  Level FlightAware Approximate
Sun 02:52:00 AM 52.9603 -17.1884 92° East  Level FlightAware Approximate
Sun 02:53:00 AM 52.9544 -16.9688 92° East  Level FlightAware Approximate
Sun 02:54:00 AM 52.9481 -16.7493 93° East  Level FlightAware Approximate
Sun 02:55:00 AM 52.9414 -16.5298 93° East  Level FlightAware Approximate
Sun 02:56:00 AM 52.9343 -16.3103 93° East  Level FlightAware Approximate
Sun 02:57:00 AM 52.9268 -16.0910 93° East  Level FlightAware Approximate
Sun 02:58:00 AM 52.9188 -15.8717 93° East  Level FlightAware Approximate
Sun 02:59:00 AM 52.9105 -15.6525 94° East  Level FlightAware Approximate
Sun 03:00:00 AM 52.9018 -15.4334 94° East  Level FlightAware Approximate
Sun 03:01:00 AM 52.8927 -15.2144 94° East  Level FlightAware Approximate
Sun 03:02:00 AM 52.8831 -14.9955 94° East  Level FlightAware Approximate
Sun 03:03:00 AM 52.8740 -14.7766 94° East  Level FlightAware Approximate
Sun 03:04:00 AM 52.8645 -14.5577 94° East  Level FlightAware Approximate
Sun 03:05:00 AM 52.8546 -14.3390 94° East  Level FlightAware Approximate
Sun 03:06:00 AM 52.8443 -14.1204 94° East  Level FlightAware Approximate
Sun 03:07:00 AM 52.8336 -13.9019 95° East  Level FlightAware Approximate
Sun 03:08:00 AM 52.8225 -13.6834 95° East  Level FlightAware Approximate
Sun 03:09:00 AM 52.8109 -13.4651 95° East  Level FlightAware Approximate
Sun 03:10:00 AM 52.7990 -13.2470 95° East  Level FlightAware Approximate
Sun 03:11:00 AM 52.7867 -13.0289 95° East  Level FlightAware Approximate
Sun 03:12:00 AM 52.7740 -12.8110 95° East  Level FlightAware Approximate
Sun 03:12:32 AM 52.8470 -13.1340 96° East 442 509 36,000  Level FlightAware ADS-B
Sun 03:13:00 AM 52.7609 -12.5932 96° East  Level FlightAware Approximate
Sun 03:13:22 AM 52.8370 -12.9700 96° East 36,000  Level FlightAware ADS-B
Sun 03:14:12 AM 52.8250 -12.7910 96° East 436 502 36,000  Level FlightAware ADS-B
Sun 03:14:52 AM 52.8170 -12.6680 96° East 435 501 36,000  Level FlightAware ADS-B
Sun 03:15:32 AM 52.8080 -12.5330 96° East 434 499 36,000  Level FlightAware ADS-B
Sun 03:16:17 AM 52.7980 -12.3790 96° East 432 497 36,000  Level FlightAware ADS-B
Sun 03:16:57 AM 52.7900 -12.2470 96° East 432 497 36,000  Level FlightAware ADS-B
Sun 03:17:37 AM 52.7820 -12.1160 96° East 432 497 36,000  Level FlightAware ADS-B
Sun 03:18:22 AM 52.7720 -11.9650 96° East 432 497 36,000  Level FlightAware ADS-B
Sun 03:19:02 AM 52.7620 -11.8340 97° East 433 498 36,000  Level FlightAware ADS-B
Sun 03:19:47 AM 52.7510 -11.6870 97° East 431 496 36,000  Level FlightAware ADS-B
Sun 03:20:27 AM 52.7410 -11.5590 97° East 432 497 36,000  Level FlightAware ADS-B
Sun 03:21:12 AM 52.7280 -11.4090 98° East 432 497 36,000  Level FlightAware ADS-B
Sun 03:21:52 AM 52.7170 -11.2820 98° East 432 497 36,000  Level FlightAware ADS-B
Sun 03:22:32 AM 52.7060 -11.1550 98° East 430 495 36,000  Level FlightAware ADS-B
Sun 03:23:17 AM 52.6930 -11.0090 98° East 429 494 36,000  Level FlightAware ADS-B
Sun 03:23:57 AM 52.6810 -10.8700 98° East 428 493 36,000  Level FlightAware ADS-B
Sun 03:24:42 AM 52.6670 -10.7260 99° East 428 493 36,000  Level FlightAware ADS-B
Sun 03:25:22 AM 52.6540 -10.6010 100° East 426 490 36,000  Level FlightAware ADS-B
Sun 03:26:07 AM 52.6380 -10.4530 100° East 425 489 36,000  Level FlightAware ADS-B
Sun 03:26:47 AM 52.6240 -10.3290 100° East 424 488 36,000  Level FlightAware ADS-B
Sun 03:27:27 AM 52.6120 -10.2150 100° East 424 488 36,000  Level FlightAware ADS-B
Sun 03:28:12 AM 52.5960 -10.0620 100° East 423 487 36,000  Level FlightAware ADS-B
Sun 03:28:52 AM 52.5840 -9.9360 99° East 421 484 36,000  Level FlightAware ADS-B
Sun 03:29:37 AM 52.5710 -9.7900 98° East 421 484 36,000  Level FlightAware ADS-B
Sun 03:30:17 AM 52.5580 -9.6640 100° East 420 483 36,000  Level FlightAware ADS-B
Sun 03:30:57 AM 52.5460 -9.5350 99° East 420 483 36,000  Level FlightAware ADS-B
Sun 03:31:42 AM 52.5320 -9.3970 99° East 420 483 36,000  Level FlightAware ADS-B
Sun 03:32:22 AM 52.5190 -9.2680 99° East 423 487 36,000  Level FlightAware ADS-B
Sun 03:33:02 AM 52.5060 -9.1410 99° East 424 488 36,000  Level FlightAware ADS-B
Sun 03:33:47 AM 52.4920 -9.0010 99° East 423 487 36,000 -1,475 Level FlightAware ADS-B
Sun 03:34:03 AM 52.4853 -8.9383 99° East 456 525 34,500 -2,647 Descending FlightAware UK
Sun 03:34:21 AM 52.4793 -8.8815 100° East 460 529 34,500 4,737 Level FlightAware UK
Sun 03:34:22 AM 52.4800 -8.8960 100° East 422 486 36,000  Climbing FlightAware ADS-B
Sun 03:34:39 AM 52.4730 -8.8247 100° East 460 529 34,500 -2,571 Descending FlightAware UK
Sun 03:34:57 AM 52.4667 -8.7681 100° East 462 532 34,500 2,727 Level FlightAware UK
Sun 03:35:12 AM 52.4620 -8.7300 100° East 422 486 36,000  Climbing FlightAware ADS-B
Sun 03:35:27 AM 52.4562 -8.6739 100° East 458 527 34,500 -2,727 Descending FlightAware UK
Sun 03:35:45 AM 52.4499 -8.6172 100° East 458 527 34,500 3,600 Level FlightAware UK
Sun 03:35:52 AM 52.4480 -8.6040 100° East 420 483 36,000  Climbing FlightAware ADS-B
Sun 03:36:09 AM 52.4416 -8.5420 100° East 458 527 34,500 -2,571 Descending FlightAware UK
Sun 03:36:27 AM 52.4352 -8.4856 100° East 456 525 34,500 3,913 Level FlightAware UK
Sun 03:36:32 AM 52.4350 -8.4880 100° East 418 481 36,000  Climbing FlightAware ADS-B
Sun 03:36:51 AM 52.4267 -8.4106 100° East 454 522 34,500 -2,432 Descending FlightAware UK
Sun 03:37:09 AM 52.4203 -8.3547 101° East 456 525 34,500 3,462 Level FlightAware UK
Sun 03:37:17 AM 52.4190 -8.3390 101° East 419 482 36,000  Climbing FlightAware ADS-B
Sun 03:37:33 AM 52.4119 -8.2795 101° East 456 525 34,500 -2,647 Descending FlightAware UK
Sun 03:37:51 AM 52.4056 -8.2236 101° East 452 520 34,500 3,750 Level FlightAware UK
Sun 03:37:57 AM 52.4050 -8.2200 101° East 419 482 36,000  Climbing FlightAware ADS-B
Sun 03:38:15 AM 52.3973 -8.1489 101° East 450 518 34,500 -2,500 Descending FlightAware UK
Sun 03:38:33 AM 52.3910 -8.0928 100° East 456 525 34,500 4,091 Level FlightAware UK
Sun 03:38:37 AM 52.3930 -8.1080 100° East 419 482 36,000  Climbing FlightAware ADS-B
Sun 03:38:57 AM 52.3829 -8.0177 100° East 454 522 34,500 -2,368 Descending FlightAware UK
Sun 03:39:15 AM 52.3765 -7.9614 100° East 454 522 34,500 3,600 Level FlightAware UK
Sun 03:39:22 AM 52.3770 -7.9670 100° East 419 482 36,000  Climbing FlightAware ADS-B
Sun 03:39:39 AM 52.3679 -7.8863 100° East 454 522 34,500 -2,571 Descending FlightAware UK
Sun 03:39:57 AM 52.3612 -7.8299 101° East 456 525 34,500 3,913 Level FlightAware UK
Sun 03:40:02 AM 52.3610 -7.8290 101° East 422 486 36,000  Climbing FlightAware ADS-B
Sun 03:40:21 AM 52.3521 -7.7549 101° East 456 525 34,500 -2,432 Descending FlightAware UK
Sun 03:40:39 AM 52.3452 -7.6985 101° East 458 527 34,500 3,462 Level FlightAware UK
Sun 03:40:47 AM 52.3430 -7.6790 101° East 422 486 36,000  Climbing FlightAware ADS-B
Sun 03:41:03 AM 52.3361 -7.6233 101° East 458 527 34,500 -2,647 Descending FlightAware UK
Sun 03:41:21 AM 52.3293 -7.5668 101° East 460 529 34,500 3,750 Level FlightAware UK
Sun 03:41:27 AM 52.3280 -7.5600 101° East 425 489 36,000 -750 Climbing FlightAware ADS-B
Sun 03:41:45 AM 52.3204 -7.4915 101° East 460 529 34,200 -3,333 Descending FlightAware UK
Sun 03:42:03 AM 52.3133 -7.4349 102° East 458 527 34,000 3,818 Descending FlightAware UK
Sun 03:42:07 AM 52.3130 -7.4340 102° East 423 487 35,600 -500 Climbing FlightAware ADS-B
Sun 03:42:27 AM 52.3039 -7.3597 102° East 458 527 33,800 -3,158 Descending FlightAware UK
Sun 03:42:45 AM 52.2969 -7.3037 102° East 454 522 33,600 3,120 Descending FlightAware UK
Sun 03:42:52 AM 52.2950 -7.2920 102° East 419 482 35,100 -500 Climbing FlightAware ADS-B
Sun 03:43:09 AM 52.2875 -7.2293 102° East 452 520 33,400 -3,257 Descending FlightAware UK
Sun 03:43:27 AM 52.2805 -7.1735 102° East 452 520 33,200 4,667 Descending FlightAware UK
Sun 03:43:27 AM 52.2820 -7.1860 102° East 419 482 34,800 -947 Climbing FlightAware ADS-B
Sun 03:43:46 AM 52.2734 -7.1172 102° East 450 518 32,900 -4,216 Descending FlightAware UK
Sun 03:44:04 AM 52.2666 -7.0615 101° East 452 520 32,200 923 Descending FlightAware UK
Sun 03:44:12 AM 52.2640 -7.0440 101° East 424 488 33,300 -2,750 Climbing FlightAware ADS-B
Sun 03:44:28 AM 52.2575 -6.9870 101° East 464 534 31,100 -4,765 Descending FlightAware UK
Sun 03:44:46 AM 52.2505 -6.9309 101° East 458 527 30,600 1,655 Descending FlightAware UK
Sun 03:44:57 AM 52.2470 -6.9070 101° East 414 476 31,900 -2,000 Climbing FlightAware ADS-B
Sun 03:45:16 AM 52.2383 -6.8388 101° East 458 527 29,600 -4,054 Descending FlightAware UK
Sun 03:45:34 AM 52.2318 -6.7863 101° East 456 525 29,400 4,000 Descending FlightAware UK
Sun 03:45:37 AM 52.2320 -6.7870 101° East 399 459 31,000  Climbing FlightAware ADS-B
Sun 03:45:52 AM 52.2250 -6.7339 101° East 450 518 29,400 -2,727 Descending FlightAware UK
Sun 03:46:10 AM 52.2183 -6.6815 102° East 450 518 29,500 3,200 Climbing FlightAware UK
Sun 03:46:22 AM 52.2150 -6.6580 102° East 400 460 31,000  Climbing FlightAware ADS-B
Sun 03:46:40 AM 52.2071 -6.5929 102° East 458 527 29,500 -2,500 Descending FlightAware UK
Sun 03:46:58 AM 52.2004 -6.5395 102° East 458 527 29,500 4,091 Level FlightAware UK
Sun 03:47:02 AM 52.1990 -6.5340 102° East 403 464 31,000  Climbing FlightAware ADS-B
Sun 03:47:22 AM 52.1912 -6.4680 102° East 460 529 29,500 -2,368 Descending FlightAware UK
Sun 03:47:40 AM 52.1844 -6.4142 102° East 462 532 29,500 3,600 Level FlightAware UK
Sun 03:47:47 AM 52.1820 -6.4020 102° East 406 467 31,000  Climbing FlightAware ADS-B
Sun 03:48:04 AM 52.1749 -6.3423 102° East 462 532 29,500 -2,571 Descending FlightAware UK
Sun 03:48:22 AM 52.1678 -6.2882 102° East 462 532 29,500 3,913 Level FlightAware UK
Sun 03:48:27 AM 52.1670 -6.2820 102° East 408 470 31,000  Climbing FlightAware ADS-B
Sun 03:48:46 AM 52.1583 -6.2161 102° East 464 534 29,500 -2,432 Descending FlightAware UK
Sun 03:49:04 AM 52.1511 -6.1620 102° East 466 536 29,500 4,286 Level FlightAware UK
Sun 03:49:07 AM 52.1510 -6.1620 102° East 409 471 31,000  Climbing FlightAware ADS-B
Sun 03:49:22 AM 52.1437 -6.1080 102° East 466 536 29,500 -2,727 Descending FlightAware UK
Sun 03:49:40 AM 52.1362 -6.0538 103° East 466 536 29,500 3,000 Level FlightAware UK
Sun 03:49:52 AM 52.1320 -6.0240 103° East 409 471 31,000  Climbing FlightAware ADS-B
Sun 03:50:10 AM 52.1233 -5.9632 103° East 466 536 29,500 -2,500 Descending FlightAware UK
Sun 03:50:28 AM 52.1144 -5.9096 105° East 466 536 29,500 4,091 Level FlightAware UK
Sun 03:50:32 AM 52.1130 -5.9050 105° East 408 470 31,000  Climbing FlightAware ADS-B
Sun 03:50:52 AM 52.1014 -5.8388 105° East 464 534 29,500 -2,368 Descending FlightAware UK
Sun 03:51:10 AM 52.0919 -5.7859 106° East 464 534 29,500 3,600 Level FlightAware UK
Sun 03:51:17 AM 52.0900 -5.7750 106° East 408 470 31,000  Climbing FlightAware ADS-B
Sun 03:51:34 AM 52.0791 -5.7154 106° East 464 534 29,500 -2,571 Descending FlightAware UK
Sun 03:51:52 AM 52.0696 -5.6628 106° East 464 534 29,500 3,913 Level FlightAware UK
Sun 03:51:57 AM 52.0670 -5.6520 106° East 405 466 31,000  Climbing FlightAware ADS-B
Sun 03:52:16 AM 52.0567 -5.5928 106° East 464 534 29,500 -2,432 Descending FlightAware UK
Sun 03:52:34 AM 52.0470 -5.5404 107° East 464 534 29,500 4,286 Level FlightAware UK
Sun 03:52:37 AM 52.0460 -5.5360 107° East 402 463 31,000  Climbing FlightAware ADS-B
Sun 03:52:52 AM 52.0373 -5.4881 107° East 462 532 29,500 -2,727 Descending FlightAware UK
Sun 03:53:10 AM 52.0278 -5.4360 107° East 462 532 29,500 3,000 Level FlightAware UK
Sun 03:53:22 AM 52.0240 -5.4110 107° East 400 460 31,000  Climbing FlightAware ADS-B
Sun 03:53:40 AM 52.0122 -5.3496 107° East 462 532 29,500 -2,500 Descending FlightAware UK
Sun 03:53:58 AM 52.0029 -5.2982 106° East 460 529 29,500 4,091 Level FlightAware UK
Sun 03:54:02 AM 52.0020 -5.2940 106° East 398 458 31,000  Climbing FlightAware ADS-B
Sun 03:54:22 AM 51.9906 -5.2300 106° East 456 525 29,500 -2,368 Descending FlightAware UK
Sun 03:54:40 AM 51.9813 -5.1791 107° East 458 527 29,500 3,600 Level FlightAware UK
Sun 03:54:47 AM 51.9790 -5.1690 107° East 394 453 31,000  Climbing FlightAware ADS-B
Sun 03:55:04 AM 51.9686 -5.1112 107° East 458 527 29,500 -2,571 Descending FlightAware UK
Sun 03:55:22 AM 51.9588 -5.0605 107° East 456 525 29,500 3,913 Level FlightAware UK
Sun 03:55:27 AM 51.9580 -5.0560 107° East 393 452 31,000  Climbing FlightAware ADS-B
Sun 03:55:46 AM 51.9460 -4.9930 107° East 454 522 29,500 -2,432 Descending FlightAware UK
Sun 03:56:04 AM 51.9366 -4.9426 107° East 454 522 29,500 3,462 Level FlightAware UK
Sun 03:56:12 AM 51.9330 -4.9240 107° East 391 450 31,000  Climbing FlightAware ADS-B
Sun 03:56:28 AM 51.9243 -4.8745 107° East 454 522 29,500 -2,647 Descending FlightAware UK
Sun 03:56:46 AM 51.9153 -4.8240 106° East 454 522 29,500 3,750 Level FlightAware UK
Sun 03:56:52 AM 51.9140 -4.8140 106° East 391 450 31,000  Climbing FlightAware ADS-B
Sun 03:57:10 AM 51.9032 -4.7567 106° East 452 520 29,500 -2,500 Descending FlightAware UK
Sun 03:57:28 AM 51.8942 -4.7064 106° East 452 520 29,500 3,333 Level FlightAware UK
Sun 03:57:37 AM 51.8900 -4.6880 106° East 391 450 31,000  Climbing FlightAware ADS-B
Sun 03:57:52 AM 51.8820 -4.6392 106° East 454 522 29,500 -2,727 Descending FlightAware UK
Sun 03:58:10 AM 51.8724 -4.5891 107° East 456 525 29,500 3,600 Level FlightAware UK
Sun 03:58:17 AM 51.8690 -4.5740 107° East 390 449 31,000  Climbing FlightAware ADS-B
Sun 03:58:34 AM 51.8594 -4.5222 107° East 456 525 29,500 -2,571 Descending FlightAware UK
Sun 03:58:52 AM 51.8498 -4.4721 107° East 454 522 29,500 3,913 Level FlightAware UK
Sun 03:58:57 AM 51.8480 -4.4630 107° East 390 449 31,000  Climbing FlightAware ADS-B
Sun 03:59:16 AM 51.8373 -4.4053 107° East 452 520 29,500 -2,432 Descending FlightAware UK
Sun 03:59:34 AM 51.8279 -4.3553 107° East 454 522 29,500 3,462 Level FlightAware UK
Sun 03:59:42 AM 51.8250 -4.3400 107° East 389 448 31,000  Climbing FlightAware ADS-B
Sun 03:59:58 AM 51.8154 -4.2887 107° East 454 522 29,500 -2,647 Descending FlightAware UK
Sun 04:00:16 AM 51.8057 -4.2389 107° East 454 522 29,500 3,750 Level FlightAware UK
Sun 04:00:22 AM 51.8040 -4.2290 107° East 389 448 31,000  Climbing FlightAware ADS-B
Sun 04:00:40 AM 51.7927 -4.1724 107° East 452 520 29,500 -2,500 Descending FlightAware UK
Sun 04:00:58 AM 51.7829 -4.1227 108° East 452 520 29,500 4,091 Level FlightAware UK
Sun 04:01:02 AM 51.7820 -4.1220 108° East 388 447 31,000  Climbing FlightAware ADS-B
Sun 04:01:22 AM 51.7696 -4.0559 108° East 452 520 29,500 -2,368 Descending FlightAware UK
Sun 04:01:40 AM 51.7596 -4.0064 108° East 454 522 29,500 3,600 Level FlightAware UK
Sun 04:01:47 AM 51.7560 -3.9920 108° East 388 447 31,000  Climbing FlightAware ADS-B
Sun 04:02:04 AM 51.7460 -3.9404 108° East 442 509 29,500 -2,571 Descending FlightAware UK
Sun 04:02:22 AM 51.7365 -3.8942 108° East 422 486 29,500 3,913 Level FlightAware UK
Sun 04:02:27 AM 51.7350 -3.8910 108° East 354 407 31,000  Climbing FlightAware ADS-B
Sun 04:02:46 AM 51.7245 -3.8354 108° East 404 465 29,500 -2,432 Descending FlightAware UK
Sun 04:03:04 AM 51.7157 -3.7926 108° East 400 460 29,500 3,462 Level FlightAware UK
Sun 04:03:12 AM 51.7120 -3.7780 108° East 334 384 31,000 3,462 Climbing FlightAware ADS-B
Sun 04:03:30 AM 51.7030 -3.7332 108° East 333 383 31,000 -2,647 Level FlightAware ADS-B
Sun 04:03:46 AM 51.6954 -3.6939 108° East 396 456 29,500  Descending FlightAware UK
Sun 04:04:03 AM 51.6873 -3.6562 108° East 330 380 31,000  Climbing FlightAware ADS-B
Sun 04:04:22 AM 51.6780 -3.6093 108° East 394 453 29,500  Descending FlightAware UK
Sun 04:04:37 AM 51.6711 -3.5767 108° East 330 380 31,000  Climbing FlightAware ADS-B
Sun 04:04:52 AM 51.6636 -3.5392 108° East 396 456 29,500  Descending FlightAware UK
Sun 04:05:09 AM 51.6557 -3.5035 108° East 337 388 31,000  Climbing FlightAware ADS-B
Sun 04:05:28 AM 51.6461 -3.4532 108° East 400 460 29,500  Descending FlightAware UK
Sun 04:05:40 AM 51.6405 -3.4268 108° East 340 391 31,000  Climbing FlightAware ADS-B
Sun 04:05:58 AM 51.6312 -3.3809 108° East 404 465 29,500 -2,500 Descending FlightAware UK
Sun 04:06:16 AM 51.6223 -3.3376 108° East 404 465 29,500 3,000 Level FlightAware UK
Sun 04:06:28 AM 51.6166 -3.3109 108° East 342 394 31,000  Climbing FlightAware ADS-B
Sun 04:06:46 AM 51.6083 -3.2646 108° East 406 467 29,500  Descending FlightAware UK
Sun 04:06:53 AM 51.6060 -3.2495 108° East 343 395 31,000  Climbing FlightAware ADS-B
Sun 04:07:10 AM 51.6002 -3.2046 108° East 406 467 29,500  Descending FlightAware UK
Sun 04:07:24 AM 51.5961 -3.1722 108° East 341 392 31,000 -581 Climbing FlightAware ADS-B
Sun 04:07:41 AM 51.5908 -3.1296 108° East 396 456 29,200 -1,273 Descending FlightAware UK
Sun 04:07:57 AM 51.5856 -3.0914 108° East 335 386 30,300 -1,500 Climbing FlightAware ADS-B
Sun 04:08:17 AM 51.5794 -3.0419 108° East 386 444 28,300 -3,947 Descending FlightAware UK
Sun 04:08:35 AM 51.5734 -2.9985 102° East 380 437 27,800 1,400 Descending FlightAware UK
Sun 04:08:47 AM 51.5700 -2.9750 102° East 337 388 29,000 2,250 Climbing FlightAware ADS-B
Sun 04:08:59 AM 51.5660 -2.9404 101° East 338 389 28,700 -1,688 Descending FlightAware ADS-B
Sun 04:09:19 AM 51.5604 -2.8910 100° East 338 389 28,100 -4,167 Descending FlightAware ADS-B
Sun 04:09:35 AM 51.5564 -2.8509 100° East 384 442 26,200 -4,235 Descending FlightAware UK
Sun 04:09:53 AM 51.5530 -2.8067 97° East 382 440 25,700 1,929 Descending FlightAware UK
Sun 04:10:03 AM 51.5515 -2.7832 97° East 327 376 27,100 -1,400 Climbing FlightAware ADS-B
Sun 04:10:23 AM 51.5482 -2.7344 97° East 370 426 25,000 -1,455 Descending FlightAware UK
Sun 04:10:36 AM 51.5459 -2.7056 97° East 314 361 26,300 -1,200 Climbing FlightAware ADS-B
Sun 04:10:53 AM 51.5429 -2.6657 97° East 358 412 24,400 -1,333 Descending FlightAware UK
Sun 04:11:12 AM 51.5389 -2.6221 97° East 320 368 25,500 -1,333 Climbing FlightAware ADS-B
Sun 04:11:29 AM 51.5356 -2.5811 97° East 362 417 23,600 -1,161 Descending FlightAware UK
Sun 04:11:43 AM 51.5321 -2.5482 97° East 326 375 24,900 -1,200 Climbing FlightAware ADS-B
Sun 04:11:59 AM 51.5284 -2.5092 97° East 364 419 23,000 -1,412 Descending FlightAware UK
Sun 04:12:17 AM 51.5235 -2.4670 97° East 325 374 24,100 -1,333 Climbing FlightAware ADS-B
Sun 04:12:35 AM 51.5187 -2.4231 97° East 356 410 22,200 -1,600 Descending FlightAware UK
Sun 04:12:47 AM 51.5151 -2.3965 97° East 323 372 23,300 -2,000 Climbing FlightAware ADS-B
Sun 04:13:05 AM 51.5101 -2.3528 97° East 354 407 21,200 -1,818 Descending FlightAware UK
Sun 04:13:20 AM 51.5054 -2.3219 97° East 320 368 22,300 -1,800 Climbing FlightAware ADS-B
Sun 04:13:35 AM 51.4992 -2.2840 97° East 348 400 20,300 -1,800 Descending FlightAware UK
Sun 04:13:50 AM 51.4933 -2.2513 97° East 318 366 21,400 -1,800 Climbing FlightAware ADS-B
Sun 04:14:05 AM 51.4873 -2.2158 97° East 346 398 19,400 -1,742 Descending FlightAware UK
Sun 04:14:21 AM 51.4813 -2.1834 97° East 314 361 20,500 -1,667 Climbing FlightAware ADS-B
Sun 04:14:41 AM 51.4732 -2.1350 97° East 340 391 18,400 -1,548 Descending FlightAware UK
Sun 04:14:52 AM 51.4692 -2.1123 97° East 310 357 19,700 -1,600 Climbing FlightAware ADS-B
Sun 04:15:11 AM 51.4617 -2.0688 97° East 336 387 17,600 -1,548 Descending FlightAware UK
Sun 04:15:23 AM 51.4574 -2.0442 97° East 306 352 18,900 -1,500 Climbing FlightAware ADS-B
Sun 04:15:47 AM 51.4483 -1.9906 97° East 334 384 16,700 -1,355 Descending FlightAware UK
Sun 04:15:54 AM 51.4461 -1.9797 97° East 298 343 18,200 -1,250 Climbing FlightAware ADS-B
Sun 04:16:11 AM 51.4397 -1.9400 97° East 332 382 16,200 -1,400 Descending FlightAware UK
Sun 04:16:24 AM 51.4352 -1.9149 97° East 287 330 17,500 -1,400 Climbing FlightAware ADS-B
Sun 04:16:41 AM 51.4294 -1.8788 97° East 324 373 15,500 -1,588 Descending FlightAware UK
Sun 04:16:58 AM 51.4238 -1.8481 97° East 282 325 16,600 625 Climbing FlightAware ADS-B
Sun 04:17:29 AM 51.4131 -1.7860 105° East 281 323 16,000 -679 Descending FlightAware ADS-B
Sun 04:17:51 AM 51.4066 -1.7392 103° East 283 326 16,000  Level FlightAware ADS-B
Sun 04:18:16 AM 51.4019 -1.6868 98° East 286 329 16,000 -429 Level FlightAware ADS-B
Sun 04:18:47 AM 51.3973 -1.6213 96° East 288 331 15,600 -689 Descending FlightAware ADS-B
Sun 04:19:17 AM 51.3930 -1.5584 96° East 286 329 15,300 -2,625 Descending FlightAware ADS-B
Sun 04:19:35 AM 51.3904 -1.5183 96° East 314 361 13,500 -800 Descending FlightAware UK
Sun 04:19:47 AM 51.3886 -1.4954 96° East 285 328 14,900 -600 Climbing FlightAware ADS-B
Sun 04:20:05 AM 51.3860 -1.4556 96° East 314 361 13,200 -600 Descending FlightAware UK
Sun 04:20:17 AM 51.3841 -1.4325 96° East 286 329 14,600 1,395 Climbing FlightAware ADS-B
Sun 04:20:48 AM 51.3792 -1.3675 97° East 284 327 14,200 -2,625 Descending FlightAware ADS-B
Sun 04:21:05 AM 51.3764 -1.3301 97° East 302 348 12,500 -387 Descending FlightAware UK
Sun 04:21:19 AM 51.3744 -1.3052 97° East 262 302 14,000 2,045 Climbing FlightAware ADS-B
Sun 04:21:49 AM 51.3700 -1.2502 97° East 244 281 14,000 -1,698 Level FlightAware ADS-B
Sun 04:22:12 AM 51.3670 -1.2088 97° East 268 308 12,500  Descending FlightAware UK
Sun 04:22:19 AM 51.3658 -1.1983 97° East 246 283 14,000  Climbing FlightAware ADS-B
Sun 04:22:36 AM 51.3634 -1.1656 97° East 272 313 12,500  Descending FlightAware UK
Sun 04:22:43 AM 51.3622 -1.1534 97° East 245 282 14,000  Climbing FlightAware ADS-B
Sun 04:23:00 AM 51.3598 -1.1225 97° East 272 313 12,500  Descending FlightAware UK
Sun 04:23:08 AM 51.3585 -1.1086 97° East 244 281 14,000  Climbing FlightAware ADS-B
Sun 04:23:30 AM 51.3554 -1.0688 97° East 272 313 12,500  Descending FlightAware UK
Sun 04:23:37 AM 51.3542 -1.0566 97° East 246 283 14,000  Climbing FlightAware ADS-B
Sun 04:23:54 AM 51.3518 -1.0256 97° East 270 311 12,500  Descending FlightAware UK
Sun 04:24:01 AM 51.3506 -1.0134 97° East 243 280 14,000 2,432 Climbing FlightAware ADS-B
Sun 04:24:31 AM 51.3461 -0.9602 98° East 243 280 14,000 -1,698 Level FlightAware ADS-B
Sun 04:24:54 AM 51.3429 -0.9184 98° East 270 311 12,500  Descending FlightAware UK
Sun 04:25:02 AM 51.3419 -0.9052 98° East 243 280 14,000  Climbing FlightAware ADS-B
Sun 04:25:18 AM 51.3396 -0.8758 98° East 272 313 12,500  Descending FlightAware UK
Sun 04:25:32 AM 51.3376 -0.8514 98° East 243 280 14,000 2,045 Climbing FlightAware ADS-B
Sun 04:26:02 AM 51.3335 -0.7978 97° East 246 283 14,000 -1,957 Level FlightAware ADS-B
Sun 04:26:18 AM 51.3313 -0.7681 97° East 272 313 12,500  Descending FlightAware UK
Sun 04:26:33 AM 51.3292 -0.7420 97° East 245 282 14,000  Climbing FlightAware ADS-B
Sun 04:26:48 AM 51.3271 -0.7145 97° East 270 311 12,500  Descending FlightAware UK
Sun 04:27:03 AM 51.3251 -0.6888 97° East 243 280 14,000 1,957 Climbing FlightAware ADS-B
Sun 04:27:34 AM 51.3207 -0.6332 97° East 246 283 14,000 -1,765 Level FlightAware ADS-B
Sun 04:27:54 AM 51.3179 -0.5962 97° East 272 313 12,500  Descending FlightAware UK
Sun 04:28:04 AM 51.3165 -0.5792 97° East 243 280 14,000  Climbing FlightAware ADS-B
Sun 04:28:24 AM 51.3134 -0.5425 97° East 272 313 12,500  Descending FlightAware UK
Sun 04:28:34 AM 51.3120 -0.5261 97° East 241 277 14,000  Climbing FlightAware ADS-B
Sun 04:28:54 AM 51.3089 -0.4891 97° East 270 311 12,500  Descending FlightAware UK
Sun 04:29:05 AM 51.3073 -0.4712 97° East 243 280 14,000 4,286 Climbing FlightAware ADS-B
Sun 04:29:15 AM 51.3062 -0.4550 96° East 244 281 14,000  Level FlightAware ADS-B
Sun 04:29:29 AM 51.3064 -0.4282 89° East 245 282 14,000  Level FlightAware ADS-B
Sun 04:29:46 AM 51.3083 -0.3975 84° East 245 282 14,000 -375 Level FlightAware ADS-B
Sun 04:30:17 AM 51.3113 -0.3412 85° East 247 284 13,700 -667 Descending FlightAware ADS-B
Sun 04:30:49 AM 51.3145 -0.2852 85° East 246 283 13,300 -2,400 Descending FlightAware ADS-B
Sun 04:31:12 AM 51.3167 -0.2403 85° East 268 308 11,500 -800 Descending FlightAware UK
Sun 04:31:19 AM 51.3174 -0.2289 85° East 248 285 12,900 -750 Climbing FlightAware ADS-B
Sun 04:31:36 AM 51.3190 -0.1963 85° East 272 313 11,200 -600 Descending FlightAware UK
Sun 04:31:49 AM 51.3203 -0.1744 85° East 245 282 12,600 -800 Climbing FlightAware ADS-B
Sun 04:32:06 AM 51.3219 -0.1420 85° East 266 306 10,800 -800 Descending FlightAware UK
Sun 04:32:19 AM 51.3231 -0.1206 85° East 242 278 12,200 1,500 Climbing FlightAware ADS-B
Sun 04:32:50 AM 51.3256 -0.0655 86° East 241 277 11,900 -2,553 Descending FlightAware ADS-B
Sun 04:33:06 AM 51.3269 -0.0356 86° East 262 302 10,200 -800 Descending FlightAware UK
Sun 04:33:20 AM 51.3283 -0.0127 86° East 238 274 11,500 1,429 Climbing FlightAware ADS-B
Sun 04:33:48 AM 51.3307 0.0362 85° East 239 275 11,200 -667 Descending FlightAware ADS-B
Sun 04:33:56 AM 51.3314 0.0504 85° East 239 275 11,100 -500 Descending FlightAware ADS-B
Sun 04:34:00 AM 51.3319 0.0574 83° East 238 274 11,100 -667 Level FlightAware ADS-B
Sun 04:34:05 AM 51.3329 0.0661 80° East 238 274 11,000 -686 Descending FlightAware ADS-B
Sun 04:34:35 AM 51.3396 0.1175 78° East 236 272 10,700 -612 Descending FlightAware ADS-B
Sun 04:34:54 AM 51.3437 0.1499 79° East 235 270 10,500 -3,158 Descending FlightAware ADS-B
Sun 04:35:13 AM 51.3480 0.1823 79° East 256 295 8,700 -600 Descending FlightAware UK
Sun 04:35:24 AM 51.3509 0.2004 79° East 232 267 10,200 4,421 Climbing FlightAware ADS-B
Sun 04:35:32 AM 51.3526 0.2136 78° East 230 265 10,100 -462 Descending FlightAware ADS-B
Sun 04:35:37 AM 51.3531 0.2221 85° East 228 262 10,100 -500 Level FlightAware ADS-B
Sun 04:35:44 AM 51.3523 0.2338 96° East 227 261 10,000 -500 Descending FlightAware ADS-B
Sun 04:35:49 AM 51.3511 0.2402 107° East 226 260 10,000  Level FlightAware ADS-B
Sun 04:35:55 AM 51.3485 0.2510 111° Southeast 226 260 10,000 -600 Level FlightAware ADS-B
Sun 04:35:59 AM 51.3462 0.2568 122° Southeast 227 261 9,900 -857 Descending FlightAware ADS-B
Sun 04:36:02 AM 51.3442 0.2610 127° Southeast 227 261 9,900  Level FlightAware ADS-B
Sun 04:36:07 AM 51.3410 0.2660 136° Southeast 228 262 9,900 -750 Level FlightAware ADS-B
Sun 04:36:10 AM 51.3383 0.2706 133° Southeast 229 264 9,800 -857 Descending FlightAware ADS-B
Sun 04:36:14 AM 51.3349 0.2747 144° Southeast 229 264 9,800  Level FlightAware ADS-B
Sun 04:36:18 AM 51.3311 0.2780 151° Southeast 231 266 9,800 -750 Level FlightAware ADS-B
Sun 04:36:22 AM 51.3267 0.2807 159° South 234 269 9,700 -667 Descending FlightAware ADS-B
Sun 04:36:27 AM 51.3215 0.2831 164° South 237 273 9,700  Level FlightAware ADS-B
Sun 04:36:30 AM 51.3180 0.2840 171° South 239 275 9,700 -857 Level FlightAware ADS-B
Sun 04:36:34 AM 51.3136 0.2845 176° South 242 278 9,600 -667 Descending FlightAware ADS-B
Sun 04:36:39 AM 51.3086 0.2840 183° South 246 283 9,600  Level FlightAware ADS-B
Sun 04:36:42 AM 51.3050 0.2831 189° South 248 285 9,600 -1,000 Level FlightAware ADS-B
Sun 04:36:45 AM 51.3010 0.2818 192° South 252 290 9,500 -600 Descending FlightAware ADS-B
Sun 04:36:52 AM 51.2937 0.2767 204° Southwest 255 293 9,500 -545 Level FlightAware ADS-B
Sun 04:36:56 AM 51.2899 0.2727 213° Southwest 259 298 9,400 -600 Descending FlightAware ADS-B
Sun 04:37:02 AM 51.2837 0.2653 217° Southwest 263 303 9,400  Level FlightAware ADS-B
Sun 04:37:07 AM 51.2799 0.2582 230° Southwest 266 306 9,400 -750 Level FlightAware ADS-B
Sun 04:37:10 AM 51.2777 0.2534 234° Southwest 269 310 9,300 -857 Descending FlightAware ADS-B
Sun 04:37:14 AM 51.2755 0.2482 236° Southwest 271 312 9,300  Level FlightAware ADS-B
Sun 04:37:17 AM 51.2738 0.2427 244° Southwest 272 313 9,300 -857 Level FlightAware ADS-B
Sun 04:37:21 AM 51.2722 0.2352 251° West 274 315 9,200 -857 Descending FlightAware ADS-B
Sun 04:37:24 AM 51.2713 0.2272 260° West 277 319 9,200  Level FlightAware ADS-B
Sun 04:37:28 AM 51.2708 0.2189 265° West 279 321 9,200 -667 Level FlightAware ADS-B
Sun 04:37:33 AM 51.2711 0.2086 273° West 280 322 9,100 -600 Descending FlightAware ADS-B
Sun 04:37:38 AM 51.2723 0.2003 283° West 281 323 9,100  Level FlightAware ADS-B
Sun 04:37:43 AM 51.2745 0.1904 290° West 282 325 9,100 -600 Level FlightAware ADS-B
Sun 04:37:58 AM 51.2839 0.1606 297° West 282 325 8,900 -600 Descending FlightAware ADS-B
Sun 04:38:13 AM 51.2930 0.1330 298° West 280 322 8,800 -462 Descending FlightAware ADS-B
Sun 04:38:24 AM 51.2996 0.1130 298° West 278 320 8,700 -571 Descending FlightAware ADS-B
Sun 04:38:34 AM 51.3060 0.0952 300° West 276 318 8,600 -480 Descending FlightAware ADS-B
Sun 04:38:49 AM 51.3158 0.0689 301° West 275 316 8,500 -387 Descending FlightAware ADS-B
Sun 04:39:05 AM 51.3262 0.0410 301° West 275 316 8,400 -522 Descending FlightAware ADS-B
Sun 04:39:12 AM 51.3310 0.0287 302° West 275 316 8,300 -923 Descending FlightAware ADS-B
Sun 04:39:18 AM 51.3337 0.0194 295° West 276 318 8,200 -667 Descending FlightAware ADS-B
Sun 04:39:21 AM 51.3348 0.0115 283° West 275 316 8,200  Level FlightAware ADS-B
Sun 04:39:25 AM 51.3354 0.0054 279° West 275 316 8,200  Level FlightAware ADS-B
Sun 04:39:29 AM 51.3354 -0.0048 270° West 274 315 8,200 -316 Level FlightAware ADS-B
Sun 04:39:44 AM 51.3341 -0.0353 266° West 274 315 8,100 -462 Descending FlightAware ADS-B
Sun 04:39:55 AM 51.3333 -0.0574 267° West 272 313 8,000 -222 Descending FlightAware ADS-B
Sun 04:40:11 AM 51.3324 -0.0896 267° West 271 312 8,000  Level FlightAware ADS-B
Sun 04:40:26 AM 51.3315 -0.1197 267° West 272 313 8,000  Level FlightAware ADS-B
Sun 04:40:41 AM 51.3307 -0.1498 268° West 272 313 8,000  Level FlightAware ADS-B
Sun 04:40:54 AM 51.3299 -0.1760 267° West 272 313 8,000  Level FlightAware ADS-B
Sun 04:41:10 AM 51.3289 -0.2082 267° West 272 313 8,000  Level FlightAware ADS-B
Sun 04:41:25 AM 51.3280 -0.2383 267° West 271 312 8,000  Level FlightAware ADS-B
Sun 04:41:40 AM 51.3272 -0.2683 268° West 270 311 8,000  Level FlightAware ADS-B
Sun 04:41:55 AM 51.3263 -0.2982 267° West 270 311 8,000  Level FlightAware ADS-B
Sun 04:42:11 AM 51.3253 -0.3303 267° West 270 311 8,000  Level FlightAware ADS-B
Sun 04:42:36 AM 51.3238 -0.3803 267° West 271 312 8,000  Level FlightAware ADS-B
Sun 04:42:51 AM 51.3229 -0.4107 267° West 273 314 8,000  Level FlightAware ADS-B
Sun 04:43:06 AM 51.3219 -0.4408 267° West 272 313 8,000  Level FlightAware ADS-B
Sun 04:43:13 AM 51.3217 -0.4549 269° West 273 314 8,000  Level FlightAware ADS-B
Sun 04:43:20 AM 51.3221 -0.4691 273° West 273 314 8,000  Level FlightAware ADS-B
Sun 04:43:35 AM 51.3242 -0.4992 276° West 274 315 8,000  Level FlightAware ADS-B
Sun 04:43:51 AM 51.3264 -0.5314 276° West 274 315 8,000  Level FlightAware ADS-B
Sun 04:44:07 AM 51.3287 -0.5615 277° West 273 314 8,000 -194 Level FlightAware ADS-B
Sun 04:44:22 AM 51.3309 -0.5935 276° West 273 314 7,900 -444 Descending FlightAware ADS-B
Sun 04:44:34 AM 51.3327 -0.6176 277° West 272 313 7,800 -632 Descending FlightAware ADS-B
Sun 04:44:41 AM 51.3341 -0.6295 281° West 272 313 7,700 -818 Descending FlightAware ADS-B
Sun 04:44:56 AM 51.3380 -0.6607 281° West 270 311 7,500 -800 Descending FlightAware ADS-B
Sun 04:45:11 AM 51.3418 -0.6902 282° West 268 308 7,300 -800 Descending FlightAware ADS-B
Sun 04:45:26 AM 51.3456 -0.7192 282° West 268 308 7,100 -857 Descending FlightAware ADS-B
Sun 04:45:39 AM 51.3487 -0.7445 281° West 267 307 6,900 -667 Descending FlightAware ADS-B
Sun 04:45:44 AM 51.3503 -0.7540 285° West 265 305 6,900 -462 Level FlightAware ADS-B
Sun 04:45:52 AM 51.3532 -0.7687 287° West 264 304 6,800 -600 Descending FlightAware ADS-B
Sun 04:46:04 AM 51.3588 -0.7904 292° West 258 297 6,700 -643 Descending FlightAware ADS-B
Sun 04:46:20 AM 51.3649 -0.8168 290° West 249 287 6,500 -581 Descending FlightAware ADS-B
Sun 04:46:35 AM 51.3709 -0.8440 289° West 239 275 6,400 -581 Descending FlightAware ADS-B
Sun 04:46:51 AM 51.3764 -0.8702 289° West 229 264 6,200 -545 Descending FlightAware ADS-B
Sun 04:46:57 AM 51.3786 -0.8781 294° West 225 259 6,200  Level FlightAware ADS-B
Sun 04:47:01 AM 51.3805 -0.8854 293° West 220 253 6,200  Level FlightAware ADS-B
Sun 04:47:05 AM 51.3827 -0.8907 303° West 215 247 6,200 -857 Level FlightAware ADS-B
Sun 04:47:08 AM 51.3848 -0.8943 313° West 211 243 6,100 -750 Descending FlightAware ADS-B
Sun 04:47:13 AM 51.3887 -0.8994 321° Northwest 206 237 6,100  Level FlightAware ADS-B
Sun 04:47:16 AM 51.3911 -0.9018 328° Northwest 201 231 6,100 -857 Level FlightAware ADS-B
Sun 04:47:20 AM 51.3939 -0.9038 336° Northwest 199 229 6,000 -857 Descending FlightAware ADS-B
Sun 04:47:23 AM 51.3966 -0.9053 340° North 198 228 6,000  Level FlightAware ADS-B
Sun 04:47:26 AM 51.3997 -0.9069 343° North 197 227 6,000 -667 Level FlightAware ADS-B
Sun 04:47:32 AM 51.4053 -0.9087 349° North 198 228 5,900 -600 Descending FlightAware ADS-B
Sun 04:47:36 AM 51.4085 -0.9096 350° North 199 229 5,900 -750 Level FlightAware ADS-B
Sun 04:47:40 AM 51.4125 -0.9099 357° North 198 228 5,800 -857 Descending FlightAware ADS-B
Sun 04:47:43 AM 51.4153 -0.9096 North 197 227 5,800  Level FlightAware ADS-B
Sun 04:47:47 AM 51.4185 -0.9084 13° North 196 226 5,800 -857 Level FlightAware ADS-B
Sun 04:47:50 AM 51.4211 -0.9070 19° North 194 223 5,700 -857 Descending FlightAware ADS-B
Sun 04:47:54 AM 51.4246 -0.9043 25° Northeast 191 220 5,700 -857 Level FlightAware ADS-B
Sun 04:47:57 AM 51.4268 -0.9018 35° Northeast 189 217 5,600 -857 Descending FlightAware ADS-B
Sun 04:48:01 AM 51.4288 -0.8989 42° Northeast 189 217 5,600 -600 Level FlightAware ADS-B
Sun 04:48:07 AM 51.4327 -0.8916 49° Northeast 186 214 5,500 -706 Descending FlightAware ADS-B
Sun 04:48:18 AM 51.4381 -0.8794 54° Northeast 182 209 5,400 -923 Descending FlightAware ADS-B
Sun 04:48:33 AM 51.4453 -0.8627 55° Northeast 182 209 5,100 -889 Descending FlightAware ADS-B
Sun 04:48:45 AM 51.4510 -0.8493 56° Northeast 183 211 5,000 -828 Descending FlightAware ADS-B
Sun 04:49:02 AM 51.4589 -0.8313 55° Northeast 184 212 4,700 -938 Descending FlightAware ADS-B
Sun 04:49:17 AM 51.4668 -0.8134 55° Northeast 186 214 4,500 -857 Descending FlightAware ADS-B
Sun 04:49:23 AM 51.4695 -0.8065 58° Northeast 187 215 4,400 -600 Descending FlightAware ADS-B
Sun 04:49:27 AM 51.4713 -0.8018 59° Northeast 186 214 4,400 -750 Level FlightAware ADS-B
Sun 04:49:31 AM 51.4731 -0.7970 59° Northeast 187 215 4,300 -667 Descending FlightAware ADS-B
Sun 04:49:36 AM 51.4744 -0.7903 72° East 184 212 4,300 -667 Level FlightAware ADS-B
Sun 04:49:40 AM 51.4751 -0.7852 78° East 183 211 4,200 -857 Descending FlightAware ADS-B
Sun 04:49:43 AM 51.4756 -0.7812 79° East 182 209 4,200 -1,000 Level FlightAware ADS-B
Sun 04:49:46 AM 51.4760 -0.7771 81° East 179 206 4,100 -1,091 Descending FlightAware ADS-B
Sun 04:49:54 AM 51.4767 -0.7680 83° East 177 204 4,000 -947 Descending FlightAware ADS-B
Sun 04:50:05 AM 51.4772 -0.7523 87° East 176 203 3,800 -1,125 Descending FlightAware ADS-B
Sun 04:50:10 AM 51.4773 -0.7457 89° East 176 203 3,700 -1,429 Descending FlightAware ADS-B
Sun 04:50:26 AM 51.4771 -0.7249 91° East 175 201 3,300 -1,355 Descending FlightAware ADS-B
Sun 04:50:41 AM 51.4767 -0.7055 92° East 173 199 3,000 -1,241 Descending FlightAware ADS-B
Sun 04:50:55 AM 51.4763 -0.6879 92° East 167 192 2,700 -1,071 Descending FlightAware ADS-B
Sun 04:51:09 AM 51.4763 -0.6710 90° East 157 181 2,500 -857 Descending FlightAware ADS-B
Sun 04:51:16 AM 51.4765 -0.6630 88° East 155 178 2,400 -750 Descending FlightAware ADS-B
Sun 04:51:25 AM 51.4766 -0.6527 89° East 153 176 2,300 -667 Descending FlightAware ADS-B
Sun 04:51:34 AM 51.4768 -0.6425 88° East 156 180 2,200 -923 Descending FlightAware ADS-B
Sun 04:51:51 AM 51.4770 -0.6225 89° East 156 180 1,900 -938 Descending FlightAware ADS-B
Sun 04:52:06 AM 51.4771 -0.6057 89° East 149 171 1,700 -882 Descending FlightAware ADS-B
Sun 04:52:25 AM 51.4772 -0.5861 90° East 143 165 1,400 -659 Descending FlightAware ADS-B
Sun 04:53:37 AM 51.4770 -0.5240 90° East 136 157 700 -680 Descending FlightAware ADS-B
Sun 04:54:02 AM 51.4780 -0.4910 87° East 137 158 300 -720 Descending FlightAware ADS-B
Sun 04:54:27 AM 51.4780 -0.4770 90° East 136 157 100 -240 Descending FlightAware ADS-B
Sun 04:54:52 AM 51.4780 -0.4600 90° East 136 157 100  Level FlightAware ADS-B
Sun 04:56:27 AM 51.4760 -0.4580 244° Southwest 136 157 100  Level FlightAware ADS-B
Sun 04:56:52 AM 51.4740 -0.4330 97° East 136 157 100  Level FlightAware ADS-B
Sun 04:59:00 AM 51.4667 -0.4500 90° East  Level FlightAware Approximate

Login

Don't have an account? Register now (free) for customized features, flight alerts, and more!